createdAt,value
2023-05-10T00:01:04.224Z,19.97
2023-05-10T00:03:31.811Z,19.95
2023-05-10T00:06:05.966Z,19.95
2023-05-10T00:08:33.173Z,19.94
2023-05-10T00:11:00.650Z,19.95
2023-05-10T00:13:30.870Z,19.94
2023-05-10T00:16:05.288Z,19.93
2023-05-10T00:18:32.488Z,19.93
2023-05-10T00:21:03.246Z,19.92
2023-05-10T00:23:33.979Z,19.92
2023-05-10T00:26:07.094Z,19.90
2023-05-10T00:28:34.823Z,19.87
2023-05-10T00:31:04.545Z,19.90
2023-05-10T00:33:31.727Z,19.90
2023-05-10T00:36:03.783Z,19.89
2023-05-10T00:38:30.961Z,19.91
2023-05-10T00:41:01.360Z,19.89
2023-05-10T00:43:32.657Z,19.90
2023-05-10T00:46:06.148Z,19.88
2023-05-10T00:48:39.827Z,19.87
2023-05-10T00:51:07.077Z,19.85
2023-05-10T00:53:38.736Z,19.86
2023-05-10T00:56:12.776Z,19.85
2023-05-10T00:58:43.812Z,19.85
2023-05-10T01:01:11.596Z,19.85
2023-05-10T01:03:41.866Z,19.84
2023-05-10T01:06:09.094Z,19.81
2023-05-10T01:08:39.525Z,19.82
2023-05-10T01:11:10.436Z,19.81
2023-05-10T01:13:40.968Z,19.80
2023-05-10T01:16:11.798Z,19.79
2023-05-10T01:18:43.694Z,19.78
2023-05-10T01:21:37.124Z,19.80
2023-05-10T01:24:10.369Z,19.78
2023-05-10T01:26:46.468Z,19.79
2023-05-10T01:29:19.572Z,19.77
2023-05-10T01:32:05.499Z,19.77
2023-05-10T01:34:46.698Z,19.76
2023-05-10T01:37:17.867Z,19.76
2023-05-10T01:39:51.197Z,19.76
2023-05-10T01:42:28.016Z,19.76
2023-05-10T01:44:58.712Z,19.75
2023-05-10T01:47:31.975Z,19.74
2023-05-10T01:50:02.949Z,19.75
2023-05-10T01:52:43.252Z,19.74
2023-05-10T01:55:13.518Z,19.76
2023-05-10T01:57:46.390Z,19.73
2023-05-10T02:00:13.677Z,19.74
2023-05-10T02:02:42.450Z,19.74
2023-05-10T02:05:14.617Z,19.72
2023-05-10T02:07:48.609Z,19.72
2023-05-10T02:10:19.378Z,19.71
2023-05-10T02:12:48.795Z,19.72
2023-05-10T02:15:18.845Z,19.72
2023-05-10T02:17:50.913Z,19.71
2023-05-10T02:20:20.803Z,19.72
2023-05-10T02:22:52.453Z,19.72
2023-05-10T02:25:21.185Z,19.71
2023-05-10T02:27:52.837Z,19.71
2023-05-10T02:30:20.330Z,19.72
2023-05-10T02:32:48.664Z,19.72
2023-05-10T02:35:16.701Z,19.69
2023-05-10T02:37:48.332Z,19.69
2023-05-10T02:40:18.081Z,19.70
2023-05-10T02:42:46.482Z,19.69
2023-05-10T02:45:16.872Z,19.69
2023-05-10T02:47:44.206Z,19.66
2023-05-10T02:50:11.809Z,19.66
2023-05-10T02:52:41.440Z,19.68
2023-05-10T02:55:10.848Z,19.67
2023-05-10T02:57:40.313Z,19.68
2023-05-10T03:00:08.099Z,19.68
2023-05-10T03:02:42.353Z,19.68
2023-05-10T03:05:16.409Z,19.67
2023-05-10T03:07:51.342Z,19.65
2023-05-10T03:10:19.645Z,19.65
2023-05-10T03:13:23.154Z,19.66
2023-05-10T03:16:10.160Z,19.62
2023-05-10T03:18:56.221Z,19.67
2023-05-10T03:21:27.786Z,19.64
2023-05-10T03:24:05.686Z,19.64
2023-05-10T03:26:34.250Z,19.64
2023-05-10T03:29:02.088Z,19.64
2023-05-10T03:31:32.376Z,19.65
2023-05-10T03:34:05.987Z,19.62
2023-05-10T03:36:33.544Z,19.61
2023-05-10T03:39:00.731Z,19.61
2023-05-10T03:41:31.557Z,19.63
2023-05-10T03:43:58.782Z,19.60
2023-05-10T03:46:26.199Z,19.59
2023-05-10T03:48:56.556Z,19.59
2023-05-10T03:51:23.809Z,19.57
2023-05-10T03:53:50.883Z,19.59
2023-05-10T03:56:25.210Z,19.56
2023-05-10T03:58:53.112Z,19.58
2023-05-10T04:01:20.462Z,19.57
2023-05-10T04:03:50.431Z,19.58
2023-05-10T04:06:21.031Z,19.58
2023-05-10T04:08:51.124Z,19.58
2023-05-10T04:11:22.079Z,19.59
2023-05-10T04:13:52.334Z,19.62
2023-05-10T04:16:23.404Z,19.67
2023-05-10T04:18:56.873Z,19.70
2023-05-10T04:21:24.149Z,19.70
2023-05-10T04:23:51.329Z,19.71
2023-05-10T04:26:21.395Z,19.76
2023-05-10T04:28:48.798Z,19.78
2023-05-10T04:31:21.942Z,19.79
2023-05-10T04:33:50.285Z,19.81
2023-05-10T04:36:18.296Z,19.82
2023-05-10T04:38:45.175Z,19.84
2023-05-10T04:41:15.315Z,19.86
2023-05-10T04:43:48.925Z,19.90
2023-05-10T04:46:16.475Z,19.92
2023-05-10T04:48:47.372Z,19.92
2023-05-10T04:51:14.526Z,19.96
2023-05-10T04:53:48.579Z,19.95
2023-05-10T04:56:24.966Z,19.99
2023-05-10T04:58:52.281Z,20.02
2023-05-10T05:01:19.992Z,20.04
2023-05-10T05:03:49.551Z,20.00
2023-05-10T05:06:16.936Z,20.01
2023-05-10T05:08:46.891Z,20.03
2023-05-10T05:11:13.963Z,20.03
2023-05-10T05:13:43.586Z,20.03
2023-05-10T05:16:14.213Z,20.00
2023-05-10T05:18:41.425Z,19.99
2023-05-10T05:21:15.721Z,19.99
2023-05-10T05:23:43.260Z,19.97
2023-05-10T05:26:14.050Z,19.99
2023-05-10T05:28:42.962Z,20.02
2023-05-10T05:31:13.201Z,20.03
2023-05-10T05:33:45.127Z,20.06
2023-05-10T05:36:15.367Z,20.07
2023-05-10T05:38:45.077Z,20.10
2023-05-10T05:41:16.940Z,20.11
2023-05-10T05:43:43.736Z,20.12
2023-05-10T05:46:13.141Z,20.10
2023-05-10T05:48:39.839Z,20.13
2023-05-10T05:51:09.553Z,20.14
2023-05-10T05:53:39.055Z,20.10
2023-05-10T05:56:09.496Z,20.05
2023-05-10T05:58:37.981Z,20.04
2023-05-10T06:01:07.026Z,20.07
2023-05-10T06:03:36.804Z,20.03
2023-05-10T06:06:03.946Z,20.01
2023-05-10T06:08:37.694Z,20.01
2023-05-10T06:11:07.547Z,20.02
2023-05-10T06:13:39.775Z,20.00
2023-05-10T06:16:09.504Z,20.03
2023-05-10T06:18:39.434Z,20.06
2023-05-10T06:21:06.509Z,20.07
2023-05-10T06:23:33.641Z,20.06
2023-05-10T06:26:03.682Z,20.04
2023-05-10T06:28:30.401Z,20.03
2023-05-10T06:31:01.940Z,20.05
2023-05-10T06:33:31.800Z,20.07
2023-05-10T06:36:01.528Z,20.02
2023-05-10T06:38:28.318Z,20.02
2023-05-10T06:40:57.676Z,20.01
2023-05-10T06:43:27.548Z,19.99
2023-05-10T06:45:57.229Z,19.97
2023-05-10T06:48:29.783Z,19.98
2023-05-10T06:50:57.654Z,19.98
2023-05-10T06:53:24.275Z,19.95
2023-05-10T06:55:54.409Z,19.91
2023-05-10T06:58:24.432Z,19.92
2023-05-10T07:00:51.215Z,19.90
2023-05-10T07:03:20.061Z,19.87
2023-05-10T07:05:47.021Z,19.87
2023-05-10T07:08:13.714Z,19.84
2023-05-10T07:10:40.435Z,19.86
2023-05-10T07:13:08.010Z,19.86
2023-05-10T07:15:40.615Z,19.84
2023-05-10T07:18:07.585Z,19.83
2023-05-10T07:20:34.593Z,19.85
2023-05-10T07:23:04.445Z,19.87
2023-05-10T07:25:34.603Z,19.87
2023-05-10T07:28:01.377Z,19.86
2023-05-10T07:30:31.609Z,19.85
2023-05-10T07:33:01.295Z,19.84
2023-05-10T07:35:31.146Z,19.85
2023-05-10T07:38:03.093Z,19.84
2023-05-10T07:40:37.617Z,19.85
2023-05-10T07:43:07.198Z,19.82
2023-05-10T07:45:38.100Z,19.82
2023-05-10T07:48:08.308Z,19.81
2023-05-10T07:50:37.190Z,19.81
2023-05-10T07:53:09.356Z,19.81
2023-05-10T07:55:43.413Z,19.81
2023-05-10T07:58:12.792Z,19.80
2023-05-10T08:00:40.087Z,19.79
2023-05-10T08:03:12.551Z,19.81
2023-05-10T08:05:42.924Z,19.80
2023-05-10T08:08:09.822Z,19.81
2023-05-10T08:10:36.979Z,19.83
2023-05-10T08:13:03.768Z,19.81
2023-05-10T08:15:37.301Z,19.83
2023-05-10T08:18:04.150Z,19.82
2023-05-10T08:20:35.037Z,19.83
2023-05-10T08:23:04.175Z,19.83
2023-05-10T08:25:35.019Z,19.82
2023-05-10T08:28:05.214Z,19.82
2023-05-10T08:30:34.838Z,19.81
2023-05-10T08:33:05.007Z,19.80
2023-05-10T08:35:35.356Z,19.83
2023-05-10T08:38:05.774Z,19.84
2023-05-10T08:40:32.590Z,19.82
2023-05-10T08:43:12.729Z,19.80
2023-05-10T08:45:43.407Z,19.80
2023-05-10T08:48:11.026Z,19.80
2023-05-10T08:50:42.126Z,19.79
2023-05-10T08:53:13.310Z,19.80
2023-05-10T08:55:47.060Z,19.79
2023-05-10T08:58:14.157Z,19.78
2023-05-10T09:00:47.071Z,19.76
2023-05-10T09:03:14.186Z,19.77
2023-05-10T09:05:43.803Z,19.77
2023-05-10T09:08:10.688Z,19.76
2023-05-10T09:10:38.233Z,19.74
2023-05-10T09:13:09.733Z,19.69
2023-05-10T09:15:40.067Z,19.68
2023-05-10T09:18:06.625Z,19.70
2023-05-10T09:20:33.408Z,19.69
2023-05-10T09:23:04.366Z,19.70
2023-05-10T09:25:34.351Z,19.70
2023-05-10T09:28:10.358Z,19.72
2023-05-10T09:30:40.363Z,19.73
2023-05-10T09:33:10.548Z,19.76
2023-05-10T09:35:37.396Z,19.76
2023-05-10T09:38:08.508Z,19.76
2023-05-10T09:40:35.399Z,19.76
2023-05-10T09:43:07.479Z,19.75
2023-05-10T09:45:37.705Z,19.76
2023-05-10T09:48:08.652Z,19.75
2023-05-10T09:50:42.174Z,19.73
2023-05-10T09:53:16.964Z,19.72
2023-05-10T09:55:44.678Z,19.74
2023-05-10T09:58:16.908Z,19.76
2023-05-10T10:00:45.736Z,19.77
2023-05-10T10:03:16.758Z,19.77
2023-05-10T10:05:56.363Z,19.76
2023-05-10T10:08:29.516Z,19.78
2023-05-10T10:11:01.941Z,19.78
2023-05-10T10:13:38.618Z,19.79
2023-05-10T10:16:09.280Z,19.79
2023-05-10T10:18:42.936Z,19.79
2023-05-10T10:21:10.593Z,19.79
2023-05-10T10:23:41.375Z,19.79
2023-05-10T10:26:13.116Z,19.81
2023-05-10T10:28:59.476Z,19.82
2023-05-10T10:31:36.406Z,19.84
2023-05-10T10:34:25.156Z,19.83
2023-05-10T10:36:56.084Z,19.84
2023-05-10T10:39:25.809Z,19.85
2023-05-10T10:41:58.947Z,19.86
2023-05-10T10:44:32.098Z,19.87
2023-05-10T10:47:11.243Z,19.87
2023-05-10T10:49:41.406Z,19.87
2023-05-10T10:52:35.544Z,19.85
2023-05-10T10:55:05.699Z,19.88
2023-05-10T10:57:35.078Z,19.87
2023-05-10T11:00:20.886Z,19.89
2023-05-10T11:02:52.322Z,19.89
2023-05-10T11:05:26.301Z,19.89
2023-05-10T11:08:00.343Z,19.90
2023-05-10T11:10:39.448Z,19.90
2023-05-10T11:13:13.368Z,19.91
2023-05-10T11:15:51.228Z,19.91
2023-05-10T11:18:23.744Z,19.91
2023-05-10T11:21:00.021Z,19.92
2023-05-10T11:23:34.011Z,19.92
2023-05-10T11:26:04.347Z,19.91
2023-05-10T11:28:34.947Z,19.90
2023-05-10T11:31:01.920Z,19.91
2023-05-10T11:33:28.814Z,19.91
2023-05-10T11:35:58.974Z,19.91
2023-05-10T11:38:25.927Z,19.91
2023-05-10T11:40:54.909Z,19.90
2023-05-10T11:43:26.848Z,19.90
2023-05-10T11:45:54.234Z,19.92
2023-05-10T11:48:26.481Z,19.92
2023-05-10T11:50:53.367Z,19.92
2023-05-10T11:53:25.817Z,19.92
2023-05-10T11:55:55.768Z,19.92
2023-05-10T11:58:23.572Z,19.92
2023-05-10T12:00:57.750Z,19.93
2023-05-10T12:03:24.939Z,19.93
2023-05-10T12:05:53.433Z,19.93
2023-05-10T12:08:27.612Z,19.93
2023-05-10T12:10:55.384Z,19.93
2023-05-10T12:13:22.125Z,19.94
2023-05-10T12:15:48.948Z,19.94
2023-05-10T12:18:16.078Z,19.95
2023-05-10T12:20:42.826Z,19.95
2023-05-10T12:23:11.135Z,19.94
2023-05-10T12:25:41.463Z,19.95
2023-05-10T12:28:09.405Z,19.94
2023-05-10T12:30:39.904Z,19.93
2023-05-10T12:33:16.322Z,19.94
2023-05-10T12:35:50.469Z,19.93
2023-05-10T12:38:32.390Z,19.93
2023-05-10T12:41:03.260Z,19.93
2023-05-10T12:43:32.934Z,19.92
2023-05-10T12:46:07.487Z,19.92
2023-05-10T12:48:37.326Z,19.93
2023-05-10T12:51:07.509Z,19.93
2023-05-10T12:53:34.330Z,19.95
2023-05-10T12:56:04.010Z,19.95
2023-05-10T12:58:37.176Z,19.95
2023-05-10T13:01:04.331Z,19.96
2023-05-10T13:03:32.880Z,19.97
2023-05-10T13:05:59.709Z,19.98
2023-05-10T13:08:31.019Z,19.98
2023-05-10T13:11:03.684Z,19.96
2023-05-10T13:13:33.322Z,19.94
2023-05-10T13:16:00.178Z,19.95
2023-05-10T13:18:30.006Z,19.95
2023-05-10T13:20:56.868Z,19.95
2023-05-10T13:23:30.464Z,19.96
2023-05-10T13:25:59.904Z,19.95
2023-05-10T13:28:29.975Z,19.97
2023-05-10T13:30:58.200Z,19.96
2023-05-10T13:33:26.243Z,19.97
2023-05-10T13:35:56.018Z,19.98
2023-05-10T13:38:25.828Z,19.98
2023-05-10T13:40:52.980Z,19.98
2023-05-10T13:43:19.940Z,19.99
2023-05-10T13:45:46.591Z,20.00
2023-05-10T13:48:18.826Z,20.01
2023-05-10T13:50:48.673Z,20.03
2023-05-10T13:53:17.947Z,20.03
2023-05-10T13:56:03.303Z,20.03
2023-05-10T13:58:33.552Z,20.00
2023-05-10T14:01:00.177Z,20.00
2023-05-10T14:03:32.972Z,20.00
2023-05-10T14:06:00.537Z,20.01
2023-05-10T14:08:30.249Z,20.00
2023-05-10T14:11:05.259Z,20.01
2023-05-10T14:13:38.312Z,20.03
2023-05-10T14:16:08.797Z,20.03
2023-05-10T14:18:36.446Z,20.04
2023-05-10T14:21:06.236Z,20.01
2023-05-10T14:23:35.594Z,20.02
2023-05-10T14:26:11.636Z,20.01
2023-05-10T14:28:40.061Z,20.04
2023-05-10T14:31:09.623Z,20.08
2023-05-10T14:33:39.598Z,20.09
2023-05-10T14:36:07.041Z,20.07
2023-05-10T14:38:33.812Z,20.09
2023-05-10T14:41:04.538Z,20.11
2023-05-10T14:43:33.948Z,20.13
2023-05-10T14:46:03.404Z,20.15
2023-05-10T14:48:33.030Z,20.16
2023-05-10T14:51:02.469Z,20.17
2023-05-10T14:53:38.063Z,20.18
2023-05-10T14:56:07.246Z,20.18
2023-05-10T14:58:34.366Z,20.17
2023-05-10T15:01:04.832Z,20.18
2023-05-10T15:03:35.648Z,20.19
2023-05-10T15:06:02.998Z,20.19
2023-05-10T15:08:36.382Z,20.20
2023-05-10T15:11:06.872Z,20.21
2023-05-10T15:13:33.898Z,20.21
2023-05-10T15:16:05.290Z,20.22
2023-05-10T15:18:35.428Z,20.21
2023-05-10T15:21:11.146Z,20.21
2023-05-10T15:23:41.596Z,20.19
2023-05-10T15:26:08.188Z,20.20
2023-05-10T15:28:34.954Z,20.19
2023-05-10T15:31:02.238Z,20.18
2023-05-10T15:33:29.594Z,20.17
2023-05-10T15:35:56.164Z,20.17
2023-05-10T15:38:25.925Z,20.19
2023-05-10T15:40:59.674Z,20.22
2023-05-10T15:43:26.369Z,20.24
2023-05-10T15:45:53.055Z,20.24
2023-05-10T15:48:23.033Z,20.26
2023-05-10T15:50:49.927Z,20.27
2023-05-10T15:53:24.606Z,20.27
2023-05-10T15:55:54.364Z,20.27
2023-05-10T15:58:21.518Z,20.27
2023-05-10T16:00:51.763Z,20.27
2023-05-10T16:03:19.102Z,20.26
2023-05-10T16:05:52.781Z,20.26
2023-05-10T16:08:19.880Z,20.24
2023-05-10T16:10:53.456Z,20.25
2023-05-10T16:13:23.330Z,20.24
2023-05-10T16:15:50.078Z,20.26
2023-05-10T16:18:17.292Z,20.27
2023-05-10T16:20:44.821Z,20.26
2023-05-10T16:23:15.159Z,20.23
2023-05-10T16:25:42.325Z,20.27
2023-05-10T16:28:09.442Z,20.31
2023-05-10T16:30:39.873Z,20.29
2023-05-10T16:33:07.097Z,20.31
2023-05-10T16:35:34.282Z,20.31
2023-05-10T16:38:04.213Z,20.29
2023-05-10T16:40:37.480Z,20.29
2023-05-10T16:43:10.358Z,20.33
2023-05-10T16:45:39.474Z,20.35
2023-05-10T16:48:11.757Z,20.35
2023-05-10T16:50:50.159Z,20.35
2023-05-10T16:53:20.776Z,20.27
2023-05-10T16:55:51.038Z,20.31
2023-05-10T16:58:21.367Z,20.32
2023-05-10T17:00:48.573Z,20.32
2023-05-10T17:03:19.196Z,20.32
2023-05-10T17:05:53.937Z,20.30
2023-05-10T17:08:25.279Z,20.32
2023-05-10T17:10:55.282Z,20.32
2023-05-10T17:13:25.098Z,20.30
2023-05-10T17:16:00.665Z,20.32
2023-05-10T17:18:31.242Z,20.35
2023-05-10T17:21:04.505Z,20.37
2023-05-10T17:23:35.019Z,20.39
2023-05-10T17:26:04.825Z,20.40
2023-05-10T17:28:34.792Z,20.42
2023-05-10T17:31:02.564Z,20.43
2023-05-10T17:33:32.669Z,20.45
2023-05-10T17:35:59.620Z,20.46
2023-05-10T17:38:34.725Z,20.49
2023-05-10T17:41:11.696Z,20.48
2023-05-10T17:43:38.992Z,20.50
2023-05-10T17:46:10.912Z,20.45
2023-05-10T17:48:37.764Z,20.45
2023-05-10T17:51:08.262Z,20.45
2023-05-10T17:53:41.544Z,20.41
2023-05-10T17:56:08.885Z,20.45
2023-05-10T17:58:48.793Z,20.45
2023-05-10T18:01:16.524Z,20.46
2023-05-10T18:03:44.340Z,20.43
2023-05-10T18:06:12.046Z,20.46
2023-05-10T18:08:46.910Z,20.46
2023-05-10T18:11:20.447Z,20.47
2023-05-10T18:13:47.685Z,20.45
2023-05-10T18:16:14.667Z,20.43
2023-05-10T18:18:44.607Z,20.40
2023-05-10T18:21:17.408Z,20.41
2023-05-10T18:23:44.883Z,20.41
2023-05-10T18:26:15.193Z,20.40
2023-05-10T18:28:51.278Z,20.41
2023-05-10T18:31:24.828Z,20.41
2023-05-10T18:33:52.226Z,20.39
2023-05-10T18:36:24.233Z,20.39
2023-05-10T18:38:53.058Z,20.38
2023-05-10T18:41:23.346Z,20.38
2023-05-10T18:43:56.545Z,20.36
2023-05-10T18:46:28.343Z,20.35
2023-05-10T18:48:59.951Z,20.33
2023-05-10T18:51:30.667Z,20.35
2023-05-10T18:54:03.116Z,20.35
2023-05-10T18:56:33.253Z,20.37
2023-05-10T18:59:01.198Z,20.33
2023-05-10T19:01:30.237Z,20.34
2023-05-10T19:03:57.273Z,20.37
2023-05-10T19:06:30.107Z,20.39
2023-05-10T19:09:01.169Z,20.39
2023-05-10T19:11:36.429Z,20.41
2023-05-10T19:14:06.854Z,20.39
2023-05-10T19:16:35.050Z,20.41
2023-05-10T19:19:07.145Z,20.42
2023-05-10T19:21:39.049Z,20.42
2023-05-10T19:24:17.422Z,20.43
2023-05-10T19:26:48.487Z,20.44
2023-05-10T19:29:25.871Z,20.41
2023-05-10T19:31:55.164Z,20.39
2023-05-10T19:34:30.387Z,20.36
2023-05-10T19:37:01.585Z,20.35
2023-05-10T19:39:35.116Z,20.37
2023-05-10T19:42:06.167Z,20.35
2023-05-10T19:44:36.608Z,20.32
2023-05-10T19:47:04.066Z,20.34
2023-05-10T19:49:35.203Z,20.33
2023-05-10T19:52:05.448Z,20.32
2023-05-10T19:54:35.255Z,20.30
2023-05-10T19:57:03.591Z,20.30
2023-05-10T19:59:39.846Z,20.29
2023-05-10T20:02:11.748Z,20.28
2023-05-10T20:04:39.305Z,20.28
2023-05-10T20:07:12.070Z,20.27
2023-05-10T20:09:42.628Z,20.26
2023-05-10T20:12:10.056Z,20.26
2023-05-10T20:14:42.575Z,20.25
2023-05-10T20:17:14.688Z,20.25
2023-05-10T20:19:45.053Z,20.24
2023-05-10T20:22:16.458Z,20.25
2023-05-10T20:24:44.030Z,20.24
2023-05-10T20:27:17.207Z,20.23
2023-05-10T20:29:49.964Z,20.23
2023-05-10T20:32:24.655Z,20.22
2023-05-10T20:34:55.355Z,20.21
2023-05-10T20:37:23.916Z,20.22
2023-05-10T20:40:00.449Z,20.21
2023-05-10T20:42:32.056Z,20.20
2023-05-10T20:45:02.367Z,20.20
2023-05-10T20:47:33.106Z,20.19
2023-05-10T20:50:06.693Z,20.19
2023-05-10T20:52:39.944Z,20.19
2023-05-10T20:55:07.370Z,20.18
2023-05-10T20:57:40.320Z,20.17
2023-05-10T21:00:13.318Z,20.18
2023-05-10T21:02:45.899Z,20.17
2023-05-10T21:05:20.795Z,20.16
2023-05-10T21:08:02.762Z,20.15
2023-05-10T21:10:33.266Z,20.14
2023-05-10T21:13:08.613Z,20.14
2023-05-10T21:15:39.038Z,20.14
2023-05-10T21:18:06.805Z,20.11
2023-05-10T21:20:37.681Z,20.11
2023-05-10T21:23:11.897Z,20.11
2023-05-10T21:25:41.988Z,20.09
2023-05-10T21:28:13.780Z,20.10
2023-05-10T21:30:50.046Z,20.09
2023-05-10T21:33:23.044Z,20.09
2023-05-10T21:35:53.268Z,20.09
2023-05-10T21:38:23.780Z,20.07
2023-05-10T21:40:56.244Z,20.08
2023-05-10T21:43:23.485Z,20.07
2023-05-10T21:46:01.115Z,20.07
2023-05-10T21:48:33.414Z,20.06
2023-05-10T21:51:00.652Z,20.04
2023-05-10T21:53:30.309Z,20.06
2023-05-10T21:56:04.304Z,20.05
2023-05-10T21:58:35.757Z,20.04
2023-05-10T22:01:07.777Z,20.04
2023-05-10T22:03:38.519Z,20.04
2023-05-10T22:06:09.162Z,20.04
2023-05-10T22:08:39.735Z,20.04
2023-05-10T22:11:11.021Z,20.02
2023-05-10T22:13:44.794Z,20.00
2023-05-10T22:16:12.135Z,20.00
2023-05-10T22:18:44.329Z,20.00
2023-05-10T22:21:12.976Z,20.01
2023-05-10T22:23:44.217Z,20.00
2023-05-10T22:26:14.373Z,20.00
2023-05-10T22:28:42.068Z,19.99
2023-05-10T22:31:16.622Z,19.99
2023-05-10T22:33:46.937Z,19.96
2023-05-10T22:36:14.144Z,19.97
2023-05-10T22:38:50.260Z,19.98
2023-05-10T22:41:23.993Z,19.97
2023-05-10T22:43:53.685Z,19.99
2023-05-10T22:46:24.826Z,19.99
2023-05-10T22:48:52.574Z,19.97
2023-05-10T22:51:20.136Z,19.96
2023-05-10T22:53:50.317Z,19.95
2023-05-10T22:56:18.248Z,19.93
2023-05-10T22:58:45.649Z,19.93
2023-05-10T23:01:16.261Z,19.92
2023-05-10T23:03:48.170Z,19.91
2023-05-10T23:06:20.245Z,19.92
2023-05-10T23:08:51.551Z,19.90
2023-05-10T23:11:18.903Z,19.89
2023-05-10T23:13:48.844Z,19.89
2023-05-10T23:16:19.529Z,19.89
2023-05-10T23:18:52.588Z,19.88
2023-05-10T23:21:22.989Z,19.85
2023-05-10T23:23:53.483Z,19.85
2023-05-10T23:26:21.022Z,19.86
2023-05-10T23:28:50.902Z,19.85
2023-05-10T23:31:18.065Z,19.84
2023-05-10T23:33:46.633Z,19.85
2023-05-10T23:36:14.814Z,19.85
2023-05-10T23:38:48.578Z,19.85
2023-05-10T23:41:16.799Z,19.82
2023-05-10T23:43:47.124Z,19.84
2023-05-10T23:46:14.346Z,19.84
2023-05-10T23:48:44.446Z,19.82
2023-05-10T23:51:13.564Z,19.81
2023-05-10T23:53:44.273Z,19.81
2023-05-10T23:56:13.004Z,19.81
2023-05-10T23:58:43.515Z,19.80
